createdAt,value
2023-05-04T00:00:10.427Z,67.11
2023-05-04T00:05:33.013Z,67.31
2023-05-04T00:10:35.643Z,67.49
2023-05-04T00:15:38.182Z,67.78
2023-05-04T00:20:41.013Z,68.33
2023-05-04T00:25:43.575Z,69.17
2023-05-04T00:30:46.500Z,69.75
2023-05-04T00:35:49.079Z,70.49
2023-05-04T00:40:51.790Z,70.67
2023-05-04T00:45:54.393Z,70.87
2023-05-04T00:50:57.138Z,71.15
2023-05-04T00:55:59.733Z,71.53
2023-05-04T01:01:03.912Z,72.09
2023-05-04T01:06:30.346Z,72.21
2023-05-04T01:12:01.481Z,72.33
2023-05-04T01:17:06.007Z,72.44
2023-05-04T01:22:08.726Z,72.72
2023-05-04T01:27:19.287Z,73.37
2023-05-04T01:32:22.933Z,74.02
2023-05-04T01:37:26.014Z,74.44
2023-05-04T01:42:28.527Z,74.97
2023-05-04T01:47:31.678Z,75.09
2023-05-04T01:52:34.215Z,75.04
2023-05-04T01:57:36.775Z,75.35
2023-05-04T02:02:39.384Z,75.71
2023-05-04T02:07:41.978Z,76.08
2023-05-04T02:12:44.584Z,76.05
2023-05-04T02:17:47.113Z,75.90
2023-05-04T02:22:49.595Z,76.06
2023-05-04T02:27:52.105Z,75.83
2023-05-04T02:32:54.665Z,75.80
2023-05-04T02:37:57.197Z,75.33
2023-05-04T02:42:59.765Z,74.91
2023-05-04T02:48:02.385Z,74.97
2023-05-04T02:53:04.986Z,74.96
2023-05-04T02:58:07.583Z,74.67
2023-05-04T03:03:10.283Z,75.13
2023-05-04T03:08:13.043Z,75.02
2023-05-04T03:13:16.620Z,75.27
2023-05-04T03:18:19.232Z,75.36
2023-05-04T03:23:21.730Z,75.51
2023-05-04T03:28:24.304Z,75.39
2023-05-04T03:33:26.796Z,74.96
2023-05-04T03:38:29.328Z,74.80
2023-05-04T03:43:31.871Z,74.31
2023-05-04T03:48:34.464Z,74.19
2023-05-04T03:53:37.081Z,74.52
2023-05-04T03:58:39.637Z,74.39
2023-05-04T04:03:42.263Z,73.94
2023-05-04T04:08:44.877Z,73.78
2023-05-04T04:13:47.402Z,73.75
2023-05-04T04:18:49.981Z,74.08
2023-05-04T04:23:52.593Z,74.17
2023-05-04T04:28:55.215Z,74.41
2023-05-04T04:33:57.818Z,74.05
2023-05-04T04:39:00.843Z,73.05
2023-05-04T04:44:04.051Z,71.89
2023-05-04T04:49:07.263Z,71.45
2023-05-04T04:54:09.954Z,70.99
2023-05-04T04:59:13.947Z,70.53
2023-05-04T05:04:18.957Z,69.93
2023-05-04T05:09:21.469Z,69.34
2023-05-04T05:14:24.044Z,69.37
2023-05-04T05:19:26.611Z,68.52
2023-05-04T05:24:29.149Z,67.69
2023-05-04T05:29:32.156Z,66.93
2023-05-04T05:34:34.963Z,65.09
2023-05-04T05:39:37.478Z,64.09
2023-05-04T05:44:40.134Z,62.93
2023-05-04T05:49:44.764Z,63.00
2023-05-04T05:54:48.789Z,63.01
2023-05-04T05:59:51.395Z,61.86
2023-05-04T06:04:54.384Z,61.45
2023-05-04T06:09:57.224Z,61.13
2023-05-04T06:15:00.041Z,61.27
2023-05-04T06:20:02.732Z,59.67
2023-05-04T06:25:08.105Z,58.08
2023-05-04T06:30:11.888Z,57.63
2023-05-04T06:35:14.943Z,57.28
2023-05-04T06:40:20.529Z,57.33
2023-05-04T06:45:23.133Z,57.41
2023-05-04T06:50:25.665Z,56.52
2023-05-04T06:55:28.223Z,54.81
2023-05-04T07:00:32.129Z,54.85
2023-05-04T07:05:37.233Z,54.91
2023-05-04T07:10:40.122Z,52.80
2023-05-04T07:15:42.699Z,50.13
2023-05-04T07:20:45.374Z,48.25
2023-05-04T07:25:47.993Z,47.37
2023-05-04T07:30:51.207Z,47.54
2023-05-04T07:35:58.720Z,47.29
2023-05-04T07:41:01.387Z,45.72
2023-05-04T07:46:04.014Z,45.75
2023-05-04T07:51:11.698Z,45.12
2023-05-04T07:56:14.338Z,44.55
2023-05-04T08:01:17.103Z,43.98
2023-05-04T08:06:19.689Z,43.16
2023-05-04T08:11:22.197Z,41.76
2023-05-04T08:16:24.756Z,42.80
2023-05-04T08:21:27.948Z,42.65
2023-05-04T08:26:31.084Z,42.42
2023-05-04T08:31:36.753Z,41.43
2023-05-04T08:36:40.579Z,39.92
2023-05-04T08:41:43.605Z,39.04
2023-05-04T08:46:53.638Z,35.49
2023-05-04T08:52:00.691Z,36.26
2023-05-04T08:57:05.070Z,34.95
2023-05-04T09:02:12.011Z,35.24
2023-05-04T09:07:16.440Z,35.66
2023-05-04T09:12:19.287Z,33.39
2023-05-04T09:17:29.395Z,33.27
2023-05-04T09:22:32.008Z,31.98
2023-05-04T09:27:34.578Z,30.53
2023-05-04T09:32:46.467Z,31.11
2023-05-04T09:38:26.793Z,29.59
2023-05-04T09:43:38.713Z,29.60
2023-05-04T09:48:53.846Z,28.47
2023-05-04T09:54:00.780Z,30.44
2023-05-04T09:59:05.443Z,31.80
2023-05-04T10:04:08.170Z,31.91
2023-05-04T10:09:11.654Z,31.91
2023-05-04T10:14:14.569Z,31.28
2023-05-04T10:19:49.036Z,29.72
2023-05-04T10:25:19.215Z,29.50
2023-05-04T10:30:22.962Z,29.34
2023-05-04T10:35:27.615Z,29.89
2023-05-04T10:40:38.190Z,30.04
2023-05-04T10:45:41.784Z,29.70
2023-05-04T10:50:46.657Z,29.16
2023-05-04T10:55:51.573Z,29.00
2023-05-04T11:00:54.162Z,29.38
2023-05-04T11:05:56.805Z,29.26
2023-05-04T11:11:06.782Z,28.54
2023-05-04T11:16:12.446Z,28.60
2023-05-04T11:21:25.767Z,28.16
2023-05-04T11:26:28.836Z,29.20
2023-05-04T11:31:31.554Z,29.35
2023-05-04T11:36:38.551Z,27.69
2023-05-04T11:41:42.941Z,27.37
2023-05-04T11:46:45.831Z,27.12
2023-05-04T11:51:48.578Z,27.33
2023-05-04T11:56:51.208Z,27.81
2023-05-04T12:01:53.990Z,28.07
2023-05-04T12:06:56.637Z,27.78
2023-05-04T12:11:59.316Z,28.15
2023-05-04T12:17:03.532Z,28.93
2023-05-04T12:22:06.086Z,28.71
2023-05-04T12:27:15.030Z,28.80
2023-05-04T12:32:18.337Z,28.82
2023-05-04T12:37:22.158Z,29.46
2023-05-04T12:42:26.486Z,29.16
2023-05-04T12:47:29.145Z,29.48
2023-05-04T12:52:31.687Z,29.36
2023-05-04T12:57:34.205Z,29.75
2023-05-04T13:02:37.780Z,29.66
2023-05-04T13:07:40.467Z,29.66
2023-05-04T13:12:45.443Z,30.13
2023-05-04T13:17:48.946Z,29.64
2023-05-04T13:22:52.247Z,30.27
2023-05-04T13:27:55.199Z,29.69
2023-05-04T13:32:57.818Z,29.41
2023-05-04T13:38:00.620Z,29.43
2023-05-04T13:43:04.464Z,29.26
2023-05-04T13:48:07.347Z,28.22
2023-05-04T13:53:12.923Z,27.24
2023-05-04T13:58:15.505Z,27.49
2023-05-04T14:03:20.498Z,27.05
2023-05-04T14:08:23.230Z,26.97
2023-05-04T14:13:25.868Z,27.17
2023-05-04T14:18:28.762Z,28.43
2023-05-04T14:23:31.414Z,28.60
2023-05-04T14:28:33.971Z,27.90
2023-05-04T14:33:37.233Z,28.83
2023-05-04T14:38:42.825Z,29.17
2023-05-04T14:43:45.729Z,29.83
2023-05-04T14:48:48.469Z,29.79
2023-05-04T14:53:51.404Z,30.08
2023-05-04T14:58:53.935Z,30.02
2023-05-04T15:03:56.767Z,30.25
2023-05-04T15:08:59.527Z,30.36
2023-05-04T15:14:02.235Z,30.12
2023-05-04T15:19:05.190Z,30.29
2023-05-04T15:24:09.257Z,30.14
2023-05-04T15:29:11.790Z,30.97
2023-05-04T15:34:16.825Z,29.94
2023-05-04T15:39:20.858Z,29.61
2023-05-04T15:44:24.209Z,29.27
2023-05-04T15:49:26.846Z,29.21
2023-05-04T15:54:30.085Z,29.45
2023-05-04T15:59:32.757Z,29.33
2023-05-04T16:04:35.887Z,30.13
2023-05-04T16:09:38.535Z,30.20
2023-05-04T16:14:41.492Z,29.61
2023-05-04T16:19:44.189Z,30.41
2023-05-04T16:24:46.766Z,30.77
2023-05-04T16:29:51.054Z,31.13
2023-05-04T16:34:53.564Z,31.23
2023-05-04T16:39:57.307Z,31.68
2023-05-04T16:45:02.096Z,32.44
2023-05-04T16:50:05.808Z,32.66
2023-05-04T16:55:11.815Z,33.21
2023-05-04T17:00:15.674Z,33.91
2023-05-04T17:05:19.459Z,35.16
2023-05-04T17:10:22.101Z,36.43
2023-05-04T17:15:24.675Z,37.76
2023-05-04T17:20:32.817Z,38.82
2023-05-04T17:25:35.629Z,39.35
2023-05-04T17:30:40.276Z,40.31
2023-05-04T17:35:42.820Z,41.08
2023-05-04T17:40:45.417Z,41.77
2023-05-04T17:45:48.012Z,42.27
2023-05-04T17:50:51.069Z,42.98
2023-05-04T17:55:53.617Z,44.00
2023-05-04T18:00:56.529Z,44.44
2023-05-04T18:05:59.050Z,45.28
2023-05-04T18:11:03.449Z,45.37
2023-05-04T18:16:06.362Z,46.02
2023-05-04T18:21:08.953Z,45.95
2023-05-04T18:26:18.200Z,46.08
2023-05-04T18:31:20.788Z,46.58
2023-05-04T18:36:24.422Z,46.89
2023-05-04T18:41:28.259Z,47.34
2023-05-04T18:46:30.816Z,47.36
2023-05-04T18:51:33.585Z,47.83
2023-05-04T18:56:36.518Z,47.97
2023-05-04T19:01:39.232Z,48.24
2023-05-04T19:06:42.104Z,48.72
2023-05-04T19:11:46.700Z,49.13
2023-05-04T19:16:49.219Z,49.54
2023-05-04T19:21:52.366Z,50.68
2023-05-04T19:26:55.882Z,50.69
2023-05-04T19:32:01.284Z,50.88
2023-05-04T19:37:08.585Z,51.66
2023-05-04T19:42:11.560Z,52.75
2023-05-04T19:47:14.061Z,52.55
2023-05-04T19:52:16.936Z,52.71
2023-05-04T19:57:20.974Z,53.12
2023-05-04T20:02:23.777Z,53.25
2023-05-04T20:07:26.474Z,53.61
2023-05-04T20:12:29.341Z,54.09
2023-05-04T20:17:33.392Z,54.80
2023-05-04T20:22:36.067Z,55.95
2023-05-04T20:27:39.459Z,56.30
2023-05-04T20:32:42.734Z,56.81
2023-05-04T20:37:45.463Z,57.06
2023-05-04T20:42:48.021Z,57.37
2023-05-04T20:47:50.695Z,57.65
2023-05-04T20:52:53.339Z,57.51
2023-05-04T20:57:56.332Z,57.12
2023-05-04T21:02:59.149Z,58.22
2023-05-04T21:08:01.756Z,57.31
2023-05-04T21:13:04.992Z,57.23
2023-05-04T21:18:07.637Z,56.52
2023-05-04T21:23:10.249Z,55.80
2023-05-04T21:28:12.786Z,55.44
2023-05-04T21:33:15.321Z,54.84
2023-05-04T21:38:19.563Z,54.29
2023-05-04T21:43:24.365Z,54.02
2023-05-04T21:48:26.970Z,54.21
2023-05-04T21:53:35.506Z,54.73
2023-05-04T21:58:40.699Z,55.03
2023-05-04T22:03:44.203Z,55.12
2023-05-04T22:08:46.757Z,55.40
2023-05-04T22:13:49.468Z,55.50
2023-05-04T22:18:52.160Z,55.63
2023-05-04T22:23:54.841Z,56.05
2023-05-04T22:28:57.397Z,56.37
2023-05-04T22:33:59.939Z,56.88
2023-05-04T22:39:02.621Z,57.11
2023-05-04T22:44:05.151Z,57.62
2023-05-04T22:49:07.770Z,58.13
2023-05-04T22:54:10.314Z,58.02
2023-05-04T22:59:13.002Z,58.50
2023-05-04T23:04:15.525Z,58.93
2023-05-04T23:09:18.320Z,59.43
2023-05-04T23:14:20.877Z,60.07
2023-05-04T23:19:23.409Z,60.76
2023-05-04T23:24:26.002Z,61.13
2023-05-04T23:29:28.523Z,61.64
2023-05-04T23:34:31.047Z,62.00
2023-05-04T23:39:33.553Z,61.80
2023-05-04T23:44:36.143Z,61.98
2023-05-04T23:49:38.616Z,62.41
2023-05-04T23:54:41.143Z,62.90
2023-05-04T23:59:43.644Z,62.99
